sensor_id;sensor_type;location;lat;lon;timestamp;temperature;humidity
67942;SHT31;54731;42.600;23.476;2022-10-31T00:02:02;13.74;54.21
67942;SHT31;54731;42.600;23.476;2022-10-31T00:04:27;13.73;54.57
67942;SHT31;54731;42.600;23.476;2022-10-31T00:06:53;13.73;54.34
67942;SHT31;54731;42.600;23.476;2022-10-31T00:09:18;13.79;54.21
67942;SHT31;54731;42.600;23.476;2022-10-31T00:11:43;13.89;54.00
67942;SHT31;54731;42.600;23.476;2022-10-31T00:14:08;13.89;54.11
67942;SHT31;54731;42.600;23.476;2022-10-31T00:16:34;13.86;54.31
67942;SHT31;54731;42.600;23.476;2022-10-31T00:19:02;13.84;54.50
67942;SHT31;54731;42.600;23.476;2022-10-31T00:21:28;13.90;54.47
67942;SHT31;54731;42.600;23.476;2022-10-31T00:23:54;13.86;54.75
67942;SHT31;54731;42.600;23.476;2022-10-31T00:26:20;13.87;54.61
67942;SHT31;54731;42.600;23.476;2022-10-31T00:28:45;13.84;54.99
67942;SHT31;54731;42.600;23.476;2022-10-31T00:31:12;13.79;55.00
67942;SHT31;54731;42.600;23.476;2022-10-31T00:33:38;13.80;55.00
67942;SHT31;54731;42.600;23.476;2022-10-31T00:36:05;13.83;54.92
67942;SHT31;54731;42.600;23.476;2022-10-31T00:38:31;13.73;55.49
67942;SHT31;54731;42.600;23.476;2022-10-31T00:40:56;13.71;55.36
67942;SHT31;54731;42.600;23.476;2022-10-31T00:43:22;13.73;55.42
67942;SHT31;54731;42.600;23.476;2022-10-31T00:45:47;13.71;55.65
67942;SHT31;54731;42.600;23.476;2022-10-31T00:48:13;13.71;55.48
67942;SHT31;54731;42.600;23.476;2022-10-31T00:50:38;13.70;55.75
67942;SHT31;54731;42.600;23.476;2022-10-31T00:53:04;13.69;55.92
67942;SHT31;54731;42.600;23.476;2022-10-31T00:55:30;13.66;56.29
67942;SHT31;54731;42.600;23.476;2022-10-31T00:57:55;13.67;56.07
67942;SHT31;54731;42.600;23.476;2022-10-31T01:00:20;13.63;56.61
67942;SHT31;54731;42.600;23.476;2022-10-31T01:02:46;13.60;56.44
67942;SHT31;54731;42.600;23.476;2022-10-31T01:05:11;13.58;56.55
67942;SHT31;54731;42.600;23.476;2022-10-31T01:07:38;13.49;57.10
67942;SHT31;54731;42.600;23.476;2022-10-31T01:10:04;13.56;56.51
67942;SHT31;54731;42.600;23.476;2022-10-31T01:12:30;13.55;56.96
67942;SHT31;54731;42.600;23.476;2022-10-31T01:15:00;13.49;56.94
67942;SHT31;54731;42.600;23.476;2022-10-31T01:17:25;13.52;56.92
67942;SHT31;54731;42.600;23.476;2022-10-31T01:19:51;13.55;56.69
67942;SHT31;54731;42.600;23.476;2022-10-31T01:22:16;13.53;57.06
67942;SHT31;54731;42.600;23.476;2022-10-31T01:24:41;13.49;57.00
67942;SHT31;54731;42.600;23.476;2022-10-31T01:27:06;13.52;56.94
67942;SHT31;54731;42.600;23.476;2022-10-31T01:29:32;13.49;57.33
67942;SHT31;54731;42.600;23.476;2022-10-31T01:31:57;13.42;57.54
67942;SHT31;54731;42.600;23.476;2022-10-31T01:34:22;13.45;57.64
67942;SHT31;54731;42.600;23.476;2022-10-31T01:36:48;13.42;57.88
67942;SHT31;54731;42.600;23.476;2022-10-31T01:39:14;13.34;58.22
67942;SHT31;54731;42.600;23.476;2022-10-31T01:41:48;13.29;58.54
67942;SHT31;54731;42.600;23.476;2022-10-31T01:47:04;13.16;58.95
67942;SHT31;54731;42.600;23.476;2022-10-31T01:49:53;13.15;59.32
67942;SHT31;54731;42.600;23.476;2022-10-31T01:52:41;13.18;58.86
67942;SHT31;54731;42.600;23.476;2022-10-31T01:55:13;13.14;59.05
67942;SHT31;54731;42.600;23.476;2022-10-31T01:57:42;13.18;59.07
67942;SHT31;54731;42.600;23.476;2022-10-31T02:00:09;13.25;59.47
67942;SHT31;54731;42.600;23.476;2022-10-31T02:02:35;13.16;59.64
67942;SHT31;54731;42.600;23.476;2022-10-31T02:05:05;13.26;58.87
67942;SHT31;54731;42.600;23.476;2022-10-31T02:07:42;13.28;58.71
67942;SHT31;54731;42.600;23.476;2022-10-31T02:10:08;13.30;58.76
67942;SHT31;54731;42.600;23.476;2022-10-31T02:12:34;13.36;59.07
67942;SHT31;54731;42.600;23.476;2022-10-31T02:15:00;13.42;59.20
67942;SHT31;54731;42.600;23.476;2022-10-31T02:17:25;13.48;59.08
67942;SHT31;54731;42.600;23.476;2022-10-31T02:41:03;13.70;59.05
67942;SHT31;54731;42.600;23.476;2022-10-31T02:43:36;13.67;59.32
67942;SHT31;54731;42.600;23.476;2022-10-31T02:48:51;13.67;59.04
67942;SHT31;54731;42.600;23.476;2022-10-31T02:51:18;13.65;59.15
67942;SHT31;54731;42.600;23.476;2022-10-31T02:53:44;13.73;58.99
67942;SHT31;54731;42.600;23.476;2022-10-31T02:56:15;13.73;59.02
67942;SHT31;54731;42.600;23.476;2022-10-31T02:58:51;13.70;59.29
67942;SHT31;54731;42.600;23.476;2022-10-31T03:01:31;13.71;58.98
67942;SHT31;54731;42.600;23.476;2022-10-31T03:04:12;13.69;59.12
67942;SHT31;54731;42.600;23.476;2022-10-31T03:12:12;13.73;59.10
67942;SHT31;54731;42.600;23.476;2022-10-31T03:14:43;13.77;58.87
67942;SHT31;54731;42.600;23.476;2022-10-31T03:17:21;13.76;58.83
67942;SHT31;54731;42.600;23.476;2022-10-31T03:19:53;13.83;58.68
67942;SHT31;54731;42.600;23.476;2022-10-31T03:22:24;13.84;58.75
67942;SHT31;54731;42.600;23.476;2022-10-31T03:24:52;13.84;58.95
67942;SHT31;54731;42.600;23.476;2022-10-31T03:27:24;13.89;58.83
67942;SHT31;54731;42.600;23.476;2022-10-31T03:29:52;13.90;58.87
67942;SHT31;54731;42.600;23.476;2022-10-31T03:32:23;14.00;58.26
67942;SHT31;54731;42.600;23.476;2022-10-31T03:34:50;13.99;58.43
67942;SHT31;54731;42.600;23.476;2022-10-31T03:37:18;13.91;58.63
67942;SHT31;54731;42.600;23.476;2022-10-31T03:39:46;13.96;58.61
67942;SHT31;54731;42.600;23.476;2022-10-31T03:42:20;13.91;58.47
67942;SHT31;54731;42.600;23.476;2022-10-31T03:44:51;13.84;59.07
67942;SHT31;54731;42.600;23.476;2022-10-31T03:47:18;13.81;59.10
67942;SHT31;54731;42.600;23.476;2022-10-31T03:49:44;13.79;59.34
67942;SHT31;54731;42.600;23.476;2022-10-31T03:54:44;13.80;59.81
67942;SHT31;54731;42.600;23.476;2022-10-31T03:57:18;13.79;59.60
67942;SHT31;54731;42.600;23.476;2022-10-31T04:00:03;13.79;59.87
67942;SHT31;54731;42.600;23.476;2022-10-31T04:02:31;13.79;59.69
67942;SHT31;54731;42.600;23.476;2022-10-31T04:04:58;13.83;59.62
67942;SHT31;54731;42.600;23.476;2022-10-31T04:07:29;13.83;60.00
67942;SHT31;54731;42.600;23.476;2022-10-31T04:09:56;13.84;60.88
67942;SHT31;54731;42.600;23.476;2022-10-31T04:12:23;13.79;60.92
67942;SHT31;54731;42.600;23.476;2022-10-31T04:14:50;13.77;59.93
67942;SHT31;54731;42.600;23.476;2022-10-31T04:17:17;13.83;59.75
67942;SHT31;54731;42.600;23.476;2022-10-31T04:19:43;13.84;59.74
67942;SHT31;54731;42.600;23.476;2022-10-31T04:22:09;13.79;60.13
67942;SHT31;54731;42.600;23.476;2022-10-31T04:24:36;13.81;59.86
67942;SHT31;54731;42.600;23.476;2022-10-31T04:27:02;13.81;60.41
67942;SHT31;54731;42.600;23.476;2022-10-31T04:29:27;13.87;60.57
67942;SHT31;54731;42.600;23.476;2022-10-31T04:31:52;13.86;60.12
67942;SHT31;54731;42.600;23.476;2022-10-31T04:34:18;13.87;60.36
67942;SHT31;54731;42.600;23.476;2022-10-31T04:36:43;13.83;60.22
67942;SHT31;54731;42.600;23.476;2022-10-31T04:39:08;13.84;60.31
67942;SHT31;54731;42.600;23.476;2022-10-31T04:41:34;13.83;60.44
67942;SHT31;54731;42.600;23.476;2022-10-31T04:43:59;13.81;60.45
67942;SHT31;54731;42.600;23.476;2022-10-31T04:46:24;13.77;60.61
67942;SHT31;54731;42.600;23.476;2022-10-31T04:48:49;13.74;60.91
67942;SHT31;54731;42.600;23.476;2022-10-31T04:51:15;13.69;60.92
67942;SHT31;54731;42.600;23.476;2022-10-31T04:53:40;13.65;60.66
67942;SHT31;54731;42.600;23.476;2022-10-31T04:56:06;13.60;61.03
67942;SHT31;54731;42.600;23.476;2022-10-31T04:58:31;13.55;61.48
67942;SHT31;54731;42.600;23.476;2022-10-31T05:00:56;13.42;61.04
67942;SHT31;54731;42.600;23.476;2022-10-31T05:03:22;13.28;61.46
67942;SHT31;54731;42.600;23.476;2022-10-31T05:05:47;13.28;61.77
67942;SHT31;54731;42.600;23.476;2022-10-31T05:08:13;13.30;62.02
67942;SHT31;54731;42.600;23.476;2022-10-31T05:10:39;13.30;62.90
67942;SHT31;54731;42.600;23.476;2022-10-31T05:13:05;13.26;63.06
67942;SHT31;54731;42.600;23.476;2022-10-31T05:15:31;13.28;63.25
67942;SHT31;54731;42.600;23.476;2022-10-31T05:17:57;13.28;62.67
67942;SHT31;54731;42.600;23.476;2022-10-31T05:20:25;13.26;62.91
67942;SHT31;54731;42.600;23.476;2022-10-31T05:22:52;13.15;63.28
67942;SHT31;54731;42.600;23.476;2022-10-31T05:25:19;13.18;63.41
67942;SHT31;54731;42.600;23.476;2022-10-31T05:27:46;13.11;63.25
67942;SHT31;54731;42.600;23.476;2022-10-31T05:30:14;13.11;62.98
67942;SHT31;54731;42.600;23.476;2022-10-31T05:32:41;13.09;63.39
67942;SHT31;54731;42.600;23.476;2022-10-31T05:35:08;13.08;63.80
67942;SHT31;54731;42.600;23.476;2022-10-31T05:37:35;13.04;63.31
67942;SHT31;54731;42.600;23.476;2022-10-31T05:40:02;13.04;63.80
67942;SHT31;54731;42.600;23.476;2022-10-31T05:42:27;13.04;63.85
67942;SHT31;54731;42.600;23.476;2022-10-31T05:44:52;13.01;63.80
67942;SHT31;54731;42.600;23.476;2022-10-31T05:47:17;12.94;64.23
67942;SHT31;54731;42.600;23.476;2022-10-31T05:49:43;12.95;64.09
67942;SHT31;54731;42.600;23.476;2022-10-31T05:52:08;12.95;64.43
67942;SHT31;54731;42.600;23.476;2022-10-31T05:54:33;12.89;64.79
67942;SHT31;54731;42.600;23.476;2022-10-31T05:56:59;12.87;64.67
67942;SHT31;54731;42.600;23.476;2022-10-31T05:59:24;12.89;64.07
67942;SHT31;54731;42.600;23.476;2022-10-31T06:01:49;12.74;64.28
67942;SHT31;54731;42.600;23.476;2022-10-31T06:04:15;12.63;64.76
67942;SHT31;54731;42.600;23.476;2022-10-31T06:06:40;12.63;65.02
67942;SHT31;54731;42.600;23.476;2022-10-31T06:09:05;12.51;65.48
67942;SHT31;54731;42.600;23.476;2022-10-31T06:11:31;12.44;65.44
67942;SHT31;54731;42.600;23.476;2022-10-31T06:13:56;12.45;65.64
67942;SHT31;54731;42.600;23.476;2022-10-31T06:16:21;12.41;66.04
67942;SHT31;54731;42.600;23.476;2022-10-31T06:18:47;12.43;65.53
67942;SHT31;54731;42.600;23.476;2022-10-31T06:21:12;12.31;65.80
67942;SHT31;54731;42.600;23.476;2022-10-31T06:23:38;12.14;66.60
67942;SHT31;54731;42.600;23.476;2022-10-31T06:26:03;12.19;66.17
67942;SHT31;54731;42.600;23.476;2022-10-31T06:28:28;12.23;66.36
67942;SHT31;54731;42.600;23.476;2022-10-31T06:30:53;12.23;66.67
67942;SHT31;54731;42.600;23.476;2022-10-31T06:33:19;12.29;66.74
67942;SHT31;54731;42.600;23.476;2022-10-31T06:35:48;12.38;66.31
67942;SHT31;54731;42.600;23.476;2022-10-31T06:38:14;12.36;66.83
67942;SHT31;54731;42.600;23.476;2022-10-31T06:40:39;12.41;67.03
67942;SHT31;54731;42.600;23.476;2022-10-31T06:43:05;12.47;67.00
67942;SHT31;54731;42.600;23.476;2022-10-31T06:45:30;12.44;67.00
67942;SHT31;54731;42.600;23.476;2022-10-31T06:47:56;12.48;66.77
67942;SHT31;54731;42.600;23.476;2022-10-31T06:50:22;12.53;66.16
67942;SHT31;54731;42.600;23.476;2022-10-31T06:52:57;12.54;66.24
67942;SHT31;54731;42.600;23.476;2022-10-31T06:55:24;12.55;65.90
67942;SHT31;54731;42.600;23.476;2022-10-31T06:57:58;12.54;65.83
67942;SHT31;54731;42.600;23.476;2022-10-31T07:00:24;12.57;66.05
67942;SHT31;54731;42.600;23.476;2022-10-31T07:03:01;12.55;66.25
67942;SHT31;54731;42.600;23.476;2022-10-31T07:05:27;12.61;66.14
67942;SHT31;54731;42.600;23.476;2022-10-31T07:07:54;12.60;66.11
67942;SHT31;54731;42.600;23.476;2022-10-31T07:10:19;12.65;66.22
67942;SHT31;54731;42.600;23.476;2022-10-31T07:12:45;12.68;66.15
67942;SHT31;54731;42.600;23.476;2022-10-31T07:15:10;12.74;66.37
67942;SHT31;54731;42.600;23.476;2022-10-31T07:17:35;12.78;65.89
67942;SHT31;54731;42.600;23.476;2022-10-31T07:20:00;12.83;65.82
67942;SHT31;54731;42.600;23.476;2022-10-31T07:22:33;12.81;65.80
67942;SHT31;54731;42.600;23.476;2022-10-31T07:24:58;12.81;66.22
67942;SHT31;54731;42.600;23.476;2022-10-31T07:27:23;12.84;66.00
67942;SHT31;54731;42.600;23.476;2022-10-31T07:29:49;12.84;65.93
67942;SHT31;54731;42.600;23.476;2022-10-31T07:32:14;12.85;65.92
67942;SHT31;54731;42.600;23.476;2022-10-31T07:34:39;12.92;65.94
67942;SHT31;54731;42.600;23.476;2022-10-31T07:37:05;12.94;65.73
67942;SHT31;54731;42.600;23.476;2022-10-31T07:39:30;13.02;65.92
67942;SHT31;54731;42.600;23.476;2022-10-31T07:41:58;13.11;65.33
67942;SHT31;54731;42.600;23.476;2022-10-31T07:44:24;13.19;65.29
67942;SHT31;54731;42.600;23.476;2022-10-31T07:46:49;13.22;65.05
67942;SHT31;54731;42.600;23.476;2022-10-31T07:49:14;13.26;65.39
67942;SHT31;54731;42.600;23.476;2022-10-31T07:51:39;13.32;65.41
67942;SHT31;54731;42.600;23.476;2022-10-31T07:54:05;13.36;65.54
67942;SHT31;54731;42.600;23.476;2022-10-31T07:56:30;13.43;64.63
67942;SHT31;54731;42.600;23.476;2022-10-31T07:58:55;13.49;64.83
67942;SHT31;54731;42.600;23.476;2022-10-31T08:01:21;13.55;63.99
67942;SHT31;54731;42.600;23.476;2022-10-31T08:03:46;13.59;63.79
67942;SHT31;54731;42.600;23.476;2022-10-31T08:06:11;13.59;63.80
67942;SHT31;54731;42.600;23.476;2022-10-31T08:08:36;13.63;63.92
67942;SHT31;54731;42.600;23.476;2022-10-31T08:11:02;13.71;64.56
67942;SHT31;54731;42.600;23.476;2022-10-31T08:13:27;13.73;63.67
67942;SHT31;54731;42.600;23.476;2022-10-31T08:15:52;13.74;63.54
67942;SHT31;54731;42.600;23.476;2022-10-31T08:18:18;13.87;63.14
67942;SHT31;54731;42.600;23.476;2022-10-31T08:20:43;13.96;64.03
67942;SHT31;54731;42.600;23.476;2022-10-31T08:23:10;13.97;63.50
67942;SHT31;54731;42.600;23.476;2022-10-31T08:25:37;14.03;63.02
67942;SHT31;54731;42.600;23.476;2022-10-31T08:28:02;14.07;62.97
67942;SHT31;54731;42.600;23.476;2022-10-31T08:30:31;14.11;63.04
67942;SHT31;54731;42.600;23.476;2022-10-31T08:33:08;14.13;63.11
67942;SHT31;54731;42.600;23.476;2022-10-31T08:35:34;14.23;62.78
67942;SHT31;54731;42.600;23.476;2022-10-31T08:38:00;14.27;63.01
67942;SHT31;54731;42.600;23.476;2022-10-31T08:40:27;14.33;62.57
67942;SHT31;54731;42.600;23.476;2022-10-31T08:45:25;14.38;63.11
67942;SHT31;54731;42.600;23.476;2022-10-31T08:47:51;14.51;62.47
67942;SHT31;54731;42.600;23.476;2022-10-31T08:50:16;14.61;61.84
67942;SHT31;54731;42.600;23.476;2022-10-31T08:52:42;14.69;61.94
67942;SHT31;54731;42.600;23.476;2022-10-31T08:55:07;14.75;61.10
67942;SHT31;54731;42.600;23.476;2022-10-31T08:57:32;14.84;61.05
67942;SHT31;54731;42.600;23.476;2022-10-31T08:59:58;14.89;61.03
67942;SHT31;54731;42.600;23.476;2022-10-31T09:02:23;14.98;61.10
67942;SHT31;54731;42.600;23.476;2022-10-31T09:04:48;15.10;60.78
67942;SHT31;54731;42.600;23.476;2022-10-31T09:07:14;15.19;59.91
67942;SHT31;54731;42.600;23.476;2022-10-31T09:09:39;15.26;59.52
67942;SHT31;54731;42.600;23.476;2022-10-31T09:12:04;15.27;59.67
67942;SHT31;54731;42.600;23.476;2022-10-31T09:14:30;15.30;59.84
67942;SHT31;54731;42.600;23.476;2022-10-31T09:16:55;15.32;59.75
67942;SHT31;54731;42.600;23.476;2022-10-31T09:19:20;15.35;59.19
67942;SHT31;54731;42.600;23.476;2022-10-31T09:21:46;15.33;59.68
67942;SHT31;54731;42.600;23.476;2022-10-31T09:24:11;15.33;59.37
67942;SHT31;54731;42.600;23.476;2022-10-31T09:26:36;15.39;59.31
67942;SHT31;54731;42.600;23.476;2022-10-31T09:29:02;15.42;59.55
67942;SHT31;54731;42.600;23.476;2022-10-31T09:31:27;15.40;60.11
67942;SHT31;54731;42.600;23.476;2022-10-31T09:33:53;15.39;60.40
67942;SHT31;54731;42.600;23.476;2022-10-31T09:36:19;15.46;62.19
67942;SHT31;54731;42.600;23.476;2022-10-31T09:38:44;15.57;60.18
67942;SHT31;54731;42.600;23.476;2022-10-31T09:44:08;15.76;59.26
67942;SHT31;54731;42.600;23.476;2022-10-31T09:46:39;15.90;59.44
67942;SHT31;54731;42.600;23.476;2022-10-31T09:52:01;16.15;58.12
67942;SHT31;54731;42.600;23.476;2022-10-31T09:54:48;16.26;57.40
67942;SHT31;54731;42.600;23.476;2022-10-31T09:57:16;16.41;56.66
67942;SHT31;54731;42.600;23.476;2022-10-31T09:59:46;16.51;56.60
67942;SHT31;54731;42.600;23.476;2022-10-31T10:02:37;16.66;55.61
67942;SHT31;54731;42.600;23.476;2022-10-31T10:05:05;16.77;55.91
67942;SHT31;54731;42.600;23.476;2022-10-31T10:13:29;17.19;55.26
67942;SHT31;54731;42.600;23.476;2022-10-31T10:27:21;17.98;51.79
67942;SHT31;54731;42.600;23.476;2022-10-31T10:29:50;18.13;51.91
67942;SHT31;54731;42.600;23.476;2022-10-31T10:32:23;18.22;51.01
67942;SHT31;54731;42.600;23.476;2022-10-31T10:35:07;18.39;51.14
67942;SHT31;54731;42.600;23.476;2022-10-31T10:37:39;18.49;50.12
67942;SHT31;54731;42.600;23.476;2022-10-31T10:40:20;18.42;50.53
67942;SHT31;54731;42.600;23.476;2022-10-31T10:42:56;18.38;50.32
67942;SHT31;54731;42.600;23.476;2022-10-31T10:45:24;18.38;50.09
67942;SHT31;54731;42.600;23.476;2022-10-31T10:47:56;18.33;50.23
67942;SHT31;54731;42.600;23.476;2022-10-31T10:50:29;18.26;51.19
67942;SHT31;54731;42.600;23.476;2022-10-31T10:53:24;18.18;50.67
67942;SHT31;54731;42.600;23.476;2022-10-31T10:55:58;18.18;51.29
67942;SHT31;54731;42.600;23.476;2022-10-31T10:58:24;18.18;50.88
67942;SHT31;54731;42.600;23.476;2022-10-31T11:00:53;18.16;51.16
67942;SHT31;54731;42.600;23.476;2022-10-31T11:03:19;18.12;51.35
67942;SHT31;54731;42.600;23.476;2022-10-31T11:08:10;18.11;50.96
67942;SHT31;54731;42.600;23.476;2022-10-31T11:10:36;18.06;50.66
67942;SHT31;54731;42.600;23.476;2022-10-31T11:13:22;18.04;50.97
67942;SHT31;54731;42.600;23.476;2022-10-31T11:16:04;18.04;50.68
67942;SHT31;54731;42.600;23.476;2022-10-31T11:18:32;18.06;50.79
67942;SHT31;54731;42.600;23.476;2022-10-31T11:21:00;18.06;50.86
67942;SHT31;54731;42.600;23.476;2022-10-31T11:23:27;18.04;51.33
67942;SHT31;54731;42.600;23.476;2022-10-31T11:26:05;18.06;51.70
67942;SHT31;54731;42.600;23.476;2022-10-31T11:28:32;18.19;51.94
67942;SHT31;54731;42.600;23.476;2022-10-31T11:31:05;18.31;51.33
67942;SHT31;54731;42.600;23.476;2022-10-31T11:36:27;18.69;49.87
67942;SHT31;54731;42.600;23.476;2022-10-31T11:38:54;18.87;49.98
67942;SHT31;54731;42.600;23.476;2022-10-31T11:43:58;19.44;48.49
67942;SHT31;54731;42.600;23.476;2022-10-31T11:46:33;19.74;47.23
67942;SHT31;54731;42.600;23.476;2022-10-31T11:48:59;20.01;46.37
67942;SHT31;54731;42.600;23.476;2022-10-31T11:51:28;20.30;46.02
67942;SHT31;54731;42.600;23.476;2022-10-31T11:53:55;20.59;44.67
67942;SHT31;54731;42.600;23.476;2022-10-31T11:56:22;20.88;45.12
67942;SHT31;54731;42.600;23.476;2022-10-31T11:59:01;21.20;43.69
67942;SHT31;54731;42.600;23.476;2022-10-31T12:01:29;21.35;43.28
67942;SHT31;54731;42.600;23.476;2022-10-31T12:04:06;21.49;43.24
67942;SHT31;54731;42.600;23.476;2022-10-31T12:06:37;21.66;42.75
67942;SHT31;54731;42.600;23.476;2022-10-31T12:09:28;21.78;42.84
67942;SHT31;54731;42.600;23.476;2022-10-31T12:12:32;21.85;41.79
67942;SHT31;54731;42.600;23.476;2022-10-31T12:20:46;22.09;41.50
67942;SHT31;54731;42.600;23.476;2022-10-31T12:25:48;22.08;41.06
67942;SHT31;54731;42.600;23.476;2022-10-31T12:31:24;22.39;41.09
67942;SHT31;54731;42.600;23.476;2022-10-31T12:53:18;23.51;38.71
67942;SHT31;54731;42.600;23.476;2022-10-31T12:58:53;23.66;37.78
67942;SHT31;54731;42.600;23.476;2022-10-31T13:01:46;23.80;38.27
67942;SHT31;54731;42.600;23.476;2022-10-31T13:04:15;24.07;39.06
67942;SHT31;54731;42.600;23.476;2022-10-31T13:06:48;24.23;37.66
67942;SHT31;54731;42.600;23.476;2022-10-31T13:09:19;24.23;36.82
67942;SHT31;54731;42.600;23.476;2022-10-31T13:11:49;24.27;38.13
67942;SHT31;54731;42.600;23.476;2022-10-31T13:14:36;24.46;38.27
67942;SHT31;54731;42.600;23.476;2022-10-31T13:17:04;24.53;37.24
67942;SHT31;54731;42.600;23.476;2022-10-31T13:19:41;24.71;38.20
67942;SHT31;54731;42.600;23.476;2022-10-31T13:22:18;24.80;37.74
67942;SHT31;54731;42.600;23.476;2022-10-31T13:27:58;24.65;37.18
67942;SHT31;54731;42.600;23.476;2022-10-31T13:30:27;24.63;38.18
67942;SHT31;54731;42.600;23.476;2022-10-31T13:33:22;24.74;38.17
67942;SHT31;54731;42.600;23.476;2022-10-31T13:38:36;24.63;36.93
67942;SHT31;54731;42.600;23.476;2022-10-31T13:44:30;24.30;37.09
67942;SHT31;54731;42.600;23.476;2022-10-31T13:46:56;23.96;37.92
67942;SHT31;54731;42.600;23.476;2022-10-31T13:54:34;23.44;38.68
67942;SHT31;54731;42.600;23.476;2022-10-31T13:57:00;23.28;39.59
67942;SHT31;54731;42.600;23.476;2022-10-31T13:59:27;23.24;40.06
67942;SHT31;54731;42.600;23.476;2022-10-31T14:01:55;22.93;39.79
67942;SHT31;54731;42.600;23.476;2022-10-31T14:04:23;22.86;40.46
67942;SHT31;54731;42.600;23.476;2022-10-31T14:07:05;22.84;42.11
67942;SHT31;54731;42.600;23.476;2022-10-31T14:09:34;22.75;41.11
67942;SHT31;54731;42.600;23.476;2022-10-31T14:12:07;22.71;40.96
67942;SHT31;54731;42.600;23.476;2022-10-31T14:14:43;22.54;41.50
67942;SHT31;54731;42.600;23.476;2022-10-31T14:17:24;22.23;42.22
67942;SHT31;54731;42.600;23.476;2022-10-31T14:19:59;22.02;42.14
67942;SHT31;54731;42.600;23.476;2022-10-31T14:22:32;21.72;42.54
67942;SHT31;54731;42.600;23.476;2022-10-31T14:24:58;21.71;42.97
67942;SHT31;54731;42.600;23.476;2022-10-31T14:29:52;21.45;43.54
67942;SHT31;54731;42.600;23.476;2022-10-31T14:32:23;21.27;44.07
67942;SHT31;54731;42.600;23.476;2022-10-31T14:34:53;21.23;43.83
67942;SHT31;54731;42.600;23.476;2022-10-31T14:48:38;20.57;45.23
67942;SHT31;54731;42.600;23.476;2022-10-31T14:51:13;20.47;45.49
67942;SHT31;54731;42.600;23.476;2022-10-31T14:53:56;20.33;46.03
67942;SHT31;54731;42.600;23.476;2022-10-31T14:56:27;20.30;46.41
67942;SHT31;54731;42.600;23.476;2022-10-31T14:58:57;20.20;46.43
67942;SHT31;54731;42.600;23.476;2022-10-31T15:01:35;20.13;46.70
67942;SHT31;54731;42.600;23.476;2022-10-31T15:04:04;20.01;46.36
67942;SHT31;54731;42.600;23.476;2022-10-31T15:06:40;19.95;46.27
67942;SHT31;54731;42.600;23.476;2022-10-31T15:09:23;19.83;46.91
67942;SHT31;54731;42.600;23.476;2022-10-31T15:11:49;19.77;46.73
67942;SHT31;54731;42.600;23.476;2022-10-31T15:14:26;19.71;46.81
67942;SHT31;54731;42.600;23.476;2022-10-31T15:16:51;19.62;46.64
67942;SHT31;54731;42.600;23.476;2022-10-31T15:19:21;19.57;46.45
67942;SHT31;54731;42.600;23.476;2022-10-31T15:21:50;19.51;46.70
67942;SHT31;54731;42.600;23.476;2022-10-31T15:24:16;19.37;46.71
67942;SHT31;54731;42.600;23.476;2022-10-31T15:26:48;19.24;47.12
67942;SHT31;54731;42.600;23.476;2022-10-31T15:29:19;19.08;47.24
67942;SHT31;54731;42.600;23.476;2022-10-31T15:31:55;18.89;48.26
67942;SHT31;54731;42.600;23.476;2022-10-31T15:34:41;18.79;47.95
67942;SHT31;54731;42.600;23.476;2022-10-31T15:37:19;18.74;48.10
67942;SHT31;54731;42.600;23.476;2022-10-31T15:39:46;18.63;47.83
67942;SHT31;54731;42.600;23.476;2022-10-31T15:42:22;18.56;48.18
67942;SHT31;54731;42.600;23.476;2022-10-31T15:45:02;18.52;48.45
67942;SHT31;54731;42.600;23.476;2022-10-31T15:47:31;18.43;48.84
67942;SHT31;54731;42.600;23.476;2022-10-31T15:49:59;18.39;48.45
67942;SHT31;54731;42.600;23.476;2022-10-31T15:52:41;18.38;48.48
67942;SHT31;54731;42.600;23.476;2022-10-31T15:57:52;18.13;49.22
67942;SHT31;54731;42.600;23.476;2022-10-31T16:02:47;18.09;49.00
67942;SHT31;54731;42.600;23.476;2022-10-31T16:05:19;18.00;49.54
67942;SHT31;54731;42.600;23.476;2022-10-31T16:07:51;17.92;49.50
67942;SHT31;54731;42.600;23.476;2022-10-31T16:10:26;17.78;50.36
67942;SHT31;54731;42.600;23.476;2022-10-31T16:12:52;17.70;50.57
67942;SHT31;54731;42.600;23.476;2022-10-31T16:15:19;17.70;50.18
67942;SHT31;54731;42.600;23.476;2022-10-31T16:17:48;17.66;50.56
67942;SHT31;54731;42.600;23.476;2022-10-31T16:20:32;17.54;50.67
67942;SHT31;54731;42.600;23.476;2022-10-31T16:22:58;17.53;50.71
67942;SHT31;54731;42.600;23.476;2022-10-31T16:25:32;17.57;50.46
67942;SHT31;54731;42.600;23.476;2022-10-31T16:28:03;17.41;51.08
67942;SHT31;54731;42.600;23.476;2022-10-31T16:30:35;17.31;51.27
67942;SHT31;54731;42.600;23.476;2022-10-31T16:33:01;17.22;51.49
67942;SHT31;54731;42.600;23.476;2022-10-31T16:35:33;17.19;51.57
67942;SHT31;54731;42.600;23.476;2022-10-31T16:37:59;17.16;51.73
67942;SHT31;54731;42.600;23.476;2022-10-31T16:40:24;17.15;51.70
67942;SHT31;54731;42.600;23.476;2022-10-31T16:42:50;17.10;51.87
67942;SHT31;54731;42.600;23.476;2022-10-31T16:45:19;16.99;52.05
67942;SHT31;54731;42.600;23.476;2022-10-31T16:47:45;16.96;52.16
67942;SHT31;54731;42.600;23.476;2022-10-31T16:50:22;16.89;52.38
67942;SHT31;54731;42.600;23.476;2022-10-31T16:52:48;16.80;52.67
67942;SHT31;54731;42.600;23.476;2022-10-31T16:55:14;16.85;52.38
67942;SHT31;54731;42.600;23.476;2022-10-31T16:57:48;16.82;52.50
67942;SHT31;54731;42.600;23.476;2022-10-31T17:00:20;16.85;52.35
67942;SHT31;54731;42.600;23.476;2022-10-31T17:02:47;16.87;52.27
67942;SHT31;54731;42.600;23.476;2022-10-31T17:05:14;16.82;52.49
67942;SHT31;54731;42.600;23.476;2022-10-31T17:07:40;16.79;52.52
67942;SHT31;54731;42.600;23.476;2022-10-31T17:10:07;16.80;52.68
67942;SHT31;54731;42.600;23.476;2022-10-31T17:12:33;16.73;52.86
67942;SHT31;54731;42.600;23.476;2022-10-31T17:14:58;16.66;52.98
67942;SHT31;54731;42.600;23.476;2022-10-31T17:17:24;16.63;53.03
67942;SHT31;54731;42.600;23.476;2022-10-31T17:19:49;16.61;53.07
67942;SHT31;54731;42.600;23.476;2022-10-31T17:22:14;16.61;53.13
67942;SHT31;54731;42.600;23.476;2022-10-31T17:24:40;16.59;53.21
67942;SHT31;54731;42.600;23.476;2022-10-31T17:27:05;16.52;53.32
67942;SHT31;54731;42.600;23.476;2022-10-31T17:29:31;16.51;53.45
67942;SHT31;54731;42.600;23.476;2022-10-31T17:31:56;16.47;53.48
67942;SHT31;54731;42.600;23.476;2022-10-31T17:34:21;16.48;53.42
67942;SHT31;54731;42.600;23.476;2022-10-31T17:36:51;16.44;53.56
67942;SHT31;54731;42.600;23.476;2022-10-31T17:39:17;16.44;53.59
67942;SHT31;54731;42.600;23.476;2022-10-31T17:41:42;16.40;53.66